Time;durP1;ratioP1;P1;durP2;ratioP2;P2;SDS_P1;SDS_P2;PMS_P1;PMS_P2;Temp;Humidity;BMP_temperature;BMP_pressure;BME280_temperature;BME280_humidity;BME280_pressure;Samples;Min_cycle;Max_cycle;Signal;HPM_P1;HPM_P2
2021/07/13 00:01:08;;;;;;;1.15;0.63;;;;;;;;;;5070198;28;20319;-57
2021/07/13 00:03:34;;;;;;;2.08;0.60;;;;;;;;;;5071297;28;20105;-57
2021/07/13 00:06:01;;;;;;;2.80;0.70;;;;;;;;;;5066773;28;20036;-57
2021/07/13 00:08:28;;;;;;;1.77;0.70;;;;;;;;;;5054904;28;20712;-56
2021/07/13 00:10:55;;;;;;;3.00;0.60;;;;;;;;;;5065542;28;20040;-57
2021/07/13 00:13:22;;;;;;;1.23;0.60;;;;;;;;;;5069524;28;20481;-57
2021/07/13 00:15:50;;;;;;;2.63;0.60;;;;;;;;;;5071965;28;20499;-56
2021/07/13 00:18:18;;;;;;;1.63;0.80;;;;;;;;;;5068999;28;20392;-57
2021/07/13 00:20:44;;;;;;;3.67;0.70;;;;;;;;;;5064893;28;20044;-57
2021/07/13 00:23:11;;;;;;;1.95;0.70;;;;;;;;;;5068517;28;20090;-57
2021/07/13 00:25:38;;;;;;;1.30;0.70;;;;;;;;;;5068680;28;20036;-57
2021/07/13 00:28:05;;;;;;;0.68;0.68;;;;;;;;;;5069155;28;20079;-57
2021/07/13 00:30:31;;;;;;;0.60;0.60;;;;;;;;;;5070319;28;20082;-56
2021/07/13 00:32:58;;;;;;;0.60;0.60;;;;;;;;;;5070433;28;20068;-57
2021/07/13 00:35:25;;;;;;;0.60;0.60;;;;;;;;;;5067067;28;20053;-57
2021/07/13 00:37:52;;;;;;;0.63;0.60;;;;;;;;;;5082685;28;20475;-56
2021/07/13 00:40:19;;;;;;;0.65;0.60;;;;;;;;;;5097935;28;20056;-54
2021/07/13 00:42:47;;;;;;;1.77;0.60;;;;;;;;;;5095683;28;20430;-56
2021/07/13 00:45:14;;;;;;;2.17;0.70;;;;;;;;;;5073041;28;20036;-56
2021/07/13 00:47:44;;;;;;;1.23;0.70;;;;;;;;;;5075900;28;20507;-56
2021/07/13 00:50:10;;;;;;;0.82;0.70;;;;;;;;;;5082911;28;20055;-57
2021/07/13 00:52:40;;;;;;;2.05;0.70;;;;;;;;;;5085834;28;20040;-57
2021/07/13 00:55:07;;;;;;;2.75;0.70;;;;;;;;;;5086699;28;20078;-57
2021/07/13 00:57:36;;;;;;;0.77;0.70;;;;;;;;;;5088517;28;20086;-56
2021/07/13 01:00:07;;;;;;;0.70;0.65;;;;;;;;;;5082520;28;20091;-57
2021/07/13 01:02:34;;;;;;;1.35;0.70;;;;;;;;;;5079539;28;20097;-57
2021/07/13 01:05:04;;;;;;;3.20;0.70;;;;;;;;;;5089514;28;20032;-56
2021/07/13 01:07:40;;;;;;;0.73;0.73;;;;;;;;;;5087638;28;20100;-57
2021/07/13 01:10:07;;;;;;;0.70;0.70;;;;;;;;;;5088823;28;20035;-57
2021/07/13 01:12:33;;;;;;;0.93;0.93;;;;;;;;;;5089998;28;20111;-56
2021/07/13 01:15:02;;;;;;;0.80;0.70;;;;;;;;;;5089180;28;20085;-55
2021/07/13 01:17:32;;;;;;;2.22;0.70;;;;;;;;;;5089827;28;20043;-57
2021/07/13 01:19:59;;;;;;;2.80;0.70;;;;;;;;;;5088070;28;20120;-57
2021/07/13 01:22:33;;;;;;;0.60;0.60;;;;;;;;;;5088194;28;20141;-56
2021/07/13 01:25:32;;;;;;;1.75;0.70;;;;;;;;;;5084126;28;20040;-57
2021/07/13 01:28:08;;;;;;;0.60;0.60;;;;;;;;;;5041048;28;20136;-56
2021/07/13 01:30:37;;;;;;;0.70;0.70;;;;;;;;;;5078695;28;20205;-58
2021/07/13 01:33:12;;;;;;;1.40;0.75;;;;;;;;;;5091125;28;20048;-56
2021/07/13 01:35:45;;;;;;;0.70;0.70;;;;;;;;;;5085648;28;20060;-57
2021/07/13 01:38:12;;;;;;;3.35;0.80;;;;;;;;;;5080827;28;20036;-57
2021/07/13 01:40:41;;;;;;;0.70;0.70;;;;;;;;;;5077442;28;20040;-55
2021/07/13 01:43:09;;;;;;;1.65;0.70;;;;;;;;;;5081853;28;20040;-56
2021/07/13 01:45:36;;;;;;;1.17;0.85;;;;;;;;;;5089783;28;20123;-57
2021/07/13 01:48:04;;;;;;;1.60;0.73;;;;;;;;;;5088065;28;20480;-56
2021/07/13 01:50:31;;;;;;;1.40;0.60;;;;;;;;;;5087774;28;20135;-57
2021/07/13 01:52:59;;;;;;;0.75;0.60;;;;;;;;;;5090882;28;20445;-57
2021/07/13 01:55:26;;;;;;;0.70;0.70;;;;;;;;;;5090185;28;20480;-58
2021/07/13 01:57:53;;;;;;;0.63;0.63;;;;;;;;;;5088475;28;20086;-57
2021/07/13 02:00:19;;;;;;;1.52;0.80;;;;;;;;;;5089622;28;20067;-59
2021/07/13 02:02:47;;;;;;;0.60;0.60;;;;;;;;;;5087539;28;20036;-56
2021/07/13 02:05:14;;;;;;;0.63;0.63;;;;;;;;;;5076342;28;20044;-57
2021/07/13 02:07:42;;;;;;;3.85;0.70;;;;;;;;;;5087129;28;20803;-57
2021/07/13 02:10:10;;;;;;;2.15;0.70;;;;;;;;;;5080410;28;20474;-57
2021/07/13 02:12:38;;;;;;;4.53;0.70;;;;;;;;;;5083874;28;20052;-56
2021/07/13 02:15:05;;;;;;;0.63;0.63;;;;;;;;;;5083772;28;20060;-58
2021/07/13 02:17:32;;;;;;;0.70;0.70;;;;;;;;;;5094116;28;20079;-56
2021/07/13 02:20:04;;;;;;;0.90;0.68;;;;;;;;;;5091113;28;20060;-56
2021/07/13 02:22:31;;;;;;;0.80;0.80;;;;;;;;;;5081700;28;20036;-56
2021/07/13 02:24:58;;;;;;;0.95;0.82;;;;;;;;;;5093117;28;20064;-57
2021/07/13 02:27:30;;;;;;;3.63;0.70;;;;;;;;;;5094221;28;20056;-57
2021/07/13 02:29:57;;;;;;;;;;;;;;;;;;5076139;28;20469;-54
2021/07/13 02:32:32;;;;;;;0.70;0.70;;;;;;;;;;5086886;28;19920;-57
2021/07/13 02:35:01;;;;;;;1.63;0.70;;;;;;;;;;5079224;28;20402;-57
2021/07/13 02:37:28;;;;;;;0.70;0.70;;;;;;;;;;5094166;28;20479;-56
2021/07/13 02:39:55;;;;;;;0.90;0.90;;;;;;;;;;5092538;28;20089;-57
2021/07/13 02:42:24;;;;;;;0.70;0.70;;;;;;;;;;5096318;28;20052;-57
2021/07/13 02:44:52;;;;;;;1.38;0.80;;;;;;;;;;5085163;28;20036;-57
2021/07/13 02:47:22;;;;;;;1.67;0.70;;;;;;;;;;5083197;28;20591;-56
2021/07/13 02:49:50;;;;;;;1.63;0.68;;;;;;;;;;5075838;28;20102;-56
2021/07/13 02:52:22;;;;;;;1.58;0.60;;;;;;;;;;5087772;28;20068;-55
2021/07/13 02:54:50;;;;;;;8.38;0.70;;;;;;;;;;5084116;28;20674;-56
2021/07/13 02:57:19;;;;;;;0.70;0.70;;;;;;;;;;5093540;28;20067;-55
2021/07/13 02:59:46;;;;;;;1.27;0.82;;;;;;;;;;5091875;28;20067;-55
2021/07/13 03:02:14;;;;;;;0.73;0.73;;;;;;;;;;5074683;28;20029;-57
2021/07/13 03:04:41;;;;;;;0.73;0.73;;;;;;;;;;5092219;28;20040;-57
2021/07/13 03:07:12;;;;;;;0.70;0.70;;;;;;;;;;5092145;28;20036;-56
2021/07/13 03:09:46;;;;;;;1.20;0.70;;;;;;;;;;5093966;28;20067;-57
2021/07/13 03:12:13;;;;;;;1.35;0.70;;;;;;;;;;5091242;28;20043;-57
2021/07/13 03:14:43;;;;;;;0.80;0.80;;;;;;;;;;5074202;28;20094;-56
2021/07/13 03:17:11;;;;;;;0.82;0.80;;;;;;;;;;5084159;28;20524;-58
2021/07/13 03:19:38;;;;;;;6.43;0.90;;;;;;;;;;5082520;28;20060;-57
2021/07/13 03:22:08;;;;;;;1.42;0.90;;;;;;;;;;5092247;28;20043;-57
2021/07/13 03:24:36;;;;;;;1.50;0.70;;;;;;;;;;5087431;28;20079;-57
2021/07/13 03:27:03;;;;;;;0.70;0.70;;;;;;;;;;5077713;28;20440;-57
2021/07/13 03:29:30;;;;;;;0.75;0.75;;;;;;;;;;5091157;28;20047;-56
2021/07/13 03:31:58;;;;;;;0.70;0.70;;;;;;;;;;5092597;28;20474;-55
2021/07/13 03:34:26;;;;;;;1.60;0.80;;;;;;;;;;5087578;28;20044;-57
2021/07/13 03:36:52;;;;;;;0.70;0.70;;;;;;;;;;5089887;28;20048;-57
2021/07/13 03:39:22;;;;;;;0.75;0.75;;;;;;;;;;5091339;28;20032;-57
2021/07/13 03:41:49;;;;;;;2.15;0.80;;;;;;;;;;5085848;28;20085;-56
2021/07/13 03:44:17;;;;;;;3.58;0.85;;;;;;;;;;5089915;28;20132;-57
2021/07/13 03:46:44;;;;;;;1.60;0.80;;;;;;;;;;5090293;28;20455;-57
2021/07/13 03:49:11;;;;;;;0.70;0.70;;;;;;;;;;5090765;28;20088;-58
2021/07/13 03:51:38;;;;;;;0.80;0.80;;;;;;;;;;5091266;28;20427;-57
2021/07/13 03:54:07;;;;;;;0.88;0.88;;;;;;;;;;5077613;28;20362;-57
2021/07/13 03:56:34;;;;;;;0.75;0.75;;;;;;;;;;5086486;28;20048;-56
2021/07/13 03:59:00;;;;;;;0.80;0.80;;;;;;;;;;5067662;28;20075;-57
2021/07/13 04:01:27;;;;;;;2.17;0.80;;;;;;;;;;5083117;28;20687;-57
2021/07/13 04:03:54;;;;;;;2.60;0.75;;;;;;;;;;5079441;28;20056;-57
2021/07/13 04:06:21;;;;;;;7.93;1.00;;;;;;;;;;5090436;28;20384;-57
2021/07/13 04:08:48;;;;;;;1.67;0.93;;;;;;;;;;5091520;28;20392;-57
2021/07/13 04:11:14;;;;;;;0.80;0.80;;;;;;;;;;5089590;28;20044;-57
2021/07/13 04:13:41;;;;;;;0.98;0.90;;;;;;;;;;5091583;28;20093;-57
2021/07/13 04:16:09;;;;;;;3.60;0.93;;;;;;;;;;5090694;28;20051;-56
2021/07/13 04:18:36;;;;;;;1.73;1.00;;;;;;;;;;5089035;28;20063;-57
2021/07/13 04:21:02;;;;;;;1.35;1.10;;;;;;;;;;5089508;28;20047;-57
2021/07/13 04:23:29;;;;;;;0.88;0.85;;;;;;;;;;5089291;28;20036;-57
2021/07/13 04:25:56;;;;;;;1.85;0.80;;;;;;;;;;5089293;28;20040;-57
2021/07/13 04:28:23;;;;;;;4.22;1.40;;;;;;;;;;5085892;28;20035;-58
2021/07/13 04:30:49;;;;;;;1.50;0.80;;;;;;;;;;5091089;28;20090;-57
2021/07/13 04:33:17;;;;;;;1.77;0.70;;;;;;;;;;5089489;28;20036;-58
2021/07/13 04:35:43;;;;;;;0.80;0.80;;;;;;;;;;5088325;28;20047;-56
2021/07/13 04:38:10;;;;;;;1.25;0.80;;;;;;;;;;5091409;28;20055;-57
2021/07/13 04:40:39;;;;;;;1.25;1.02;;;;;;;;;;5091910;28;20039;-57
2021/07/13 04:43:06;;;;;;;1.15;1.15;;;;;;;;;;5082557;28;20085;-57
2021/07/13 04:45:32;;;;;;;1.05;0.95;;;;;;;;;;5089812;28;20070;-57
2021/07/13 04:47:59;;;;;;;0.80;0.80;;;;;;;;;;5089105;28;20032;-57
2021/07/13 04:50:26;;;;;;;0.98;0.90;;;;;;;;;;5091852;28;20042;-57
2021/07/13 04:52:53;;;;;;;0.80;0.80;;;;;;;;;;5087780;28;20075;-57
2021/07/13 04:55:19;;;;;;;1.20;0.85;;;;;;;;;;5088831;28;20465;-57
2021/07/13 04:57:46;;;;;;;3.70;0.77;;;;;;;;;;5090333;28;20056;-56
2021/07/13 05:00:14;;;;;;;1.05;0.70;;;;;;;;;;5087782;28;20028;-57
2021/07/13 05:02:42;;;;;;;1.73;0.70;;;;;;;;;;5091077;28;20051;-57
2021/07/13 05:05:10;;;;;;;0.70;0.70;;;;;;;;;;5088290;28;20048;-57
2021/07/13 05:07:47;;;;;;;0.70;0.70;;;;;;;;;;5089912;28;20136;-57
2021/07/13 05:10:14;;;;;;;2.47;0.60;;;;;;;;;;5086279;28;20047;-56
2021/07/13 05:12:41;;;;;;;0.70;0.70;;;;;;;;;;5089064;28;20118;-57
2021/07/13 05:15:09;;;;;;;4.05;0.80;;;;;;;;;;5093573;28;20072;-56
2021/07/13 05:17:38;;;;;;;1.77;0.90;;;;;;;;;;5089061;28;20051;-56
2021/07/13 05:20:09;;;;;;;0.80;0.80;;;;;;;;;;5086702;28;20139;-57
2021/07/13 05:22:36;;;;;;;2.22;0.77;;;;;;;;;;5090817;28;20097;-57
2021/07/13 05:25:04;;;;;;;0.75;0.75;;;;;;;;;;5089251;28;20122;-57
2021/07/13 05:27:32;;;;;;;0.70;0.60;;;;;;;;;;5089138;28;20074;-57
2021/07/13 05:29:59;;;;;;;3.85;0.80;;;;;;;;;;5090124;28;20036;-61
2021/07/13 05:32:25;;;;;;;1.88;0.70;;;;;;;;;;5088961;28;20081;-61
2021/07/13 05:35:00;;;;;;;1.95;0.70;;;;;;;;;;5075994;28;20529;-61
2021/07/13 05:37:26;;;;;;;1.83;0.80;;;;;;;;;;5085788;28;20118;-61
2021/07/13 05:39:53;;;;;;;3.85;0.80;;;;;;;;;;5099799;28;20459;-61
2021/07/13 05:42:22;;;;;;;4.30;1.00;;;;;;;;;;5081145;28;20140;-61
2021/07/13 05:44:48;;;;;;;2.30;0.93;;;;;;;;;;5080428;28;20066;-61
2021/07/13 05:47:15;;;;;;;3.03;0.70;;;;;;;;;;5090179;28;20044;-61
2021/07/13 05:49:43;;;;;;;1.17;0.70;;;;;;;;;;5090552;28;20097;-60
2021/07/13 05:52:10;;;;;;;1.23;0.70;;;;;;;;;;5091514;28;20492;-61
2021/07/13 05:54:37;;;;;;;0.80;0.80;;;;;;;;;;5095204;28;20047;-61
2021/07/13 05:57:07;;;;;;;0.88;0.70;;;;;;;;;;5088119;28;20048;-61
2021/07/13 05:59:33;;;;;;;0.80;0.80;;;;;;;;;;5092353;28;20061;-61
2021/07/13 06:02:00;;;;;;;0.70;0.70;;;;;;;;;;5093112;28;20032;-61
2021/07/13 06:04:27;;;;;;;2.45;0.77;;;;;;;;;;5091051;28;20089;-61
2021/07/13 06:06:54;;;;;;;0.70;0.70;;;;;;;;;;5095038;28;20051;-61
2021/07/13 06:09:20;;;;;;;1.17;0.70;;;;;;;;;;5094273;28;20052;-61
2021/07/13 06:11:47;;;;;;;1.83;0.68;;;;;;;;;;5093234;28;20043;-61
2021/07/13 06:14:15;;;;;;;0.70;0.70;;;;;;;;;;5093573;28;20075;-61
2021/07/13 06:17:00;;;;;;;5.32;1.00;;;;;;;;;;5092633;28;20032;-61
2021/07/13 06:19:26;;;;;;;3.13;0.90;;;;;;;;;;5084624;28;20047;-61
2021/07/13 06:21:53;;;;;;;0.95;0.70;;;;;;;;;;5091905;28;20474;-61
2021/07/13 06:24:20;;;;;;;0.65;0.65;;;;;;;;;;5091647;28;20496;-61
2021/07/13 06:26:47;;;;;;;1.98;0.70;;;;;;;;;;5084619;28;20044;-61
2021/07/13 06:29:14;;;;;;;2.90;0.77;;;;;;;;;;5084144;28;20060;-61
2021/07/13 06:31:40;;;;;;;2.33;0.70;;;;;;;;;;5081963;28;20072;-61
2021/07/13 06:34:07;;;;;;;0.60;0.60;;;;;;;;;;5090713;28;20483;-61
2021/07/13 06:36:34;;;;;;;3.78;0.65;;;;;;;;;;5092751;28;20482;-61
2021/07/13 06:39:00;;;;;;;1.88;0.70;;;;;;;;;;5083788;28;20032;-61
2021/07/13 06:41:29;;;;;;;1.92;0.70;;;;;;;;;;5088812;28;20037;-61
2021/07/13 06:43:56;;;;;;;2.08;0.80;;;;;;;;;;5085062;28;20037;-61
2021/07/13 06:46:23;;;;;;;0.70;0.70;;;;;;;;;;5092905;28;20471;-61
2021/07/13 06:48:49;;;;;;;2.03;0.65;;;;;;;;;;5091525;28;20036;-61
2021/07/13 06:51:17;;;;;;;1.85;0.70;;;;;;;;;;5091334;28;20039;-61
2021/07/13 06:53:43;;;;;;;1.67;0.70;;;;;;;;;;5091716;28;20143;-61
2021/07/13 06:56:10;;;;;;;1.67;0.60;;;;;;;;;;5092895;28;20105;-61
2021/07/13 06:58:37;;;;;;;1.75;0.73;;;;;;;;;;5085837;28;20036;-61
2021/07/13 07:01:04;;;;;;;2.08;0.90;;;;;;;;;;5059222;28;20036;-61
2021/07/13 07:03:30;;;;;;;2.00;0.60;;;;;;;;;;5094290;28;20054;-61
2021/07/13 07:05:57;;;;;;;0.60;0.60;;;;;;;;;;5090979;28;20040;-61
2021/07/13 07:08:27;;;;;;;2.83;0.70;;;;;;;;;;5073167;28;20041;-61
2021/07/13 07:11:09;;;;;;;2.17;0.80;;;;;;;;;;5092070;28;20060;-61
2021/07/13 07:13:35;;;;;;;3.80;0.80;;;;;;;;;;5086766;28;20065;-61
2021/07/13 07:16:03;;;;;;;2.78;0.70;;;;;;;;;;5092151;28;20512;-61
2021/07/13 07:18:30;;;;;;;6.38;0.80;;;;;;;;;;5087786;28;20097;-61
2021/07/13 07:20:57;;;;;;;2.00;0.60;;;;;;;;;;5089659;28;20111;-61
2021/07/13 07:23:24;;;;;;;3.00;0.70;;;;;;;;;;5082755;28;20037;-61
2021/07/13 07:25:50;;;;;;;4.10;1.70;;;;;;;;;;5084502;28;20040;-61
2021/07/13 07:28:18;;;;;;;6.20;0.63;;;;;;;;;;5075010;28;20044;-61
2021/07/13 07:30:46;;;;;;;4.68;0.70;;;;;;;;;;5089858;28;20362;-60
2021/07/13 07:33:15;;;;;;;6.97;0.95;;;;;;;;;;5091410;28;20067;-61
2021/07/13 07:35:45;;;;;;;0.60;0.60;;;;;;;;;;5092564;28;20052;-61
2021/07/13 07:38:12;;;;;;;4.13;0.60;;;;;;;;;;5090774;28;20044;-60
2021/07/13 07:40:39;;;;;;;6.22;0.60;;;;;;;;;;5087527;28;20471;-61
2021/07/13 07:43:05;;;;;;;0.98;0.50;;;;;;;;;;5092090;28;20460;-61
2021/07/13 07:45:33;;;;;;;1.35;0.50;;;;;;;;;;5089735;28;20430;-61
2021/07/13 07:47:59;;;;;;;1.40;0.40;;;;;;;;;;5091494;28;20070;-61
2021/07/13 07:50:26;;;;;;;1.40;0.50;;;;;;;;;;5089744;28;20097;-61
2021/07/13 07:52:53;;;;;;;4.22;0.50;;;;;;;;;;5073495;28;20437;-61
2021/07/13 07:55:25;;;;;;;1.58;0.47;;;;;;;;;;5091531;28;20047;-61
2021/07/13 07:57:52;;;;;;;1.40;0.60;;;;;;;;;;5088696;28;20044;-61
2021/07/13 08:00:22;;;;;;;0.63;0.50;;;;;;;;;;5092733;28;20434;-60
2021/07/13 08:02:49;;;;;;;2.03;0.70;;;;;;;;;;5089842;28;20044;-61
2021/07/13 08:05:16;;;;;;;1.90;0.50;;;;;;;;;;5089991;28;20077;-61
2021/07/13 08:07:43;;;;;;;3.05;0.40;;;;;;;;;;5081977;28;20040;-61
2021/07/13 08:10:11;;;;;;;1.00;0.50;;;;;;;;;;5080208;28;20078;-61
2021/07/13 08:12:38;;;;;;;0.77;0.40;;;;;;;;;;5090866;28;20048;-61
2021/07/13 08:15:06;;;;;;;2.17;0.40;;;;;;;;;;5085907;28;20429;-61
2021/07/13 08:17:33;;;;;;;3.58;0.40;;;;;;;;;;5086516;28;20093;-61
2021/07/13 08:19:59;;;;;;;3.35;0.98;;;;;;;;;;5088522;28;20751;-61
2021/07/13 08:22:26;;;;;;;2.65;0.40;;;;;;;;;;5087977;28;20040;-61
2021/07/13 08:24:53;;;;;;;1.58;0.40;;;;;;;;;;5072828;28;20139;-61
2021/07/13 08:27:20;;;;;;;2.03;0.50;;;;;;;;;;5085270;28;20065;-60
2021/07/13 08:29:47;;;;;;;4.65;0.60;;;;;;;;;;5082960;28;20098;-61
2021/07/13 08:32:14;;;;;;;2.90;0.40;;;;;;;;;;5090963;28;20036;-61
2021/07/13 08:34:41;;;;;;;0.93;0.40;;;;;;;;;;5089549;28;20540;-61
2021/07/13 08:37:07;;;;;;;0.50;0.40;;;;;;;;;;5089326;28;20052;-61
2021/07/13 08:39:34;;;;;;;1.67;0.40;;;;;;;;;;5089724;28;20084;-61
2021/07/13 08:42:03;;;;;;;0.40;0.40;;;;;;;;;;5102165;28;20476;-61
2021/07/13 08:44:30;;;;;;;5.25;0.47;;;;;;;;;;5079305;28;20535;-61
2021/07/13 08:46:57;;;;;;;1.08;0.47;;;;;;;;;;5090290;28;20055;-60
2021/07/13 08:49:24;;;;;;;1.52;0.40;;;;;;;;;;5088949;28;20038;-61
2021/07/13 08:51:50;;;;;;;6.80;0.40;;;;;;;;;;5089347;28;20039;-61
2021/07/13 08:54:17;;;;;;;1.27;0.40;;;;;;;;;;5089784;28;20043;-61
2021/07/13 08:56:44;;;;;;;0.70;0.70;;;;;;;;;;5090567;28;20135;-60
2021/07/13 08:59:11;;;;;;;4.15;0.50;;;;;;;;;;5088426;28;20182;-61
2021/07/13 09:01:38;;;;;;;0.50;0.40;;;;;;;;;;5079441;28;20032;-61
2021/07/13 09:04:06;;;;;;;6.45;1.05;;;;;;;;;;5089704;28;20123;-61
2021/07/13 09:06:59;;;;;;;3.20;0.40;;;;;;;;;;5088886;28;20040;-61
2021/07/13 09:09:28;;;;;;;0.70;0.40;;;;;;;;;;5085402;28;20056;-61
2021/07/13 09:12:11;;;;;;;0.40;0.40;;;;;;;;;;5089628;28;20527;-60
2021/07/13 09:14:47;;;;;;;0.40;0.40;;;;;;;;;;5089139;28;20055;-61
2021/07/13 09:17:32;;;;;;;3.70;0.30;;;;;;;;;;5089525;28;20085;-61
2021/07/13 09:20:22;;;;;;;0.85;0.30;;;;;;;;;;5089109;28;20504;-61
2021/07/13 09:22:53;;;;;;;1.25;0.40;;;;;;;;;;5088699;28;20028;-61
2021/07/13 09:25:24;;;;;;;2.97;0.43;;;;;;;;;;5089320;28;20042;-61
2021/07/13 09:28:11;;;;;;;1.63;0.32;;;;;;;;;;5084755;28;20078;-61
2021/07/13 09:30:39;;;;;;;2.28;0.40;;;;;;;;;;5083231;28;20048;-61
2021/07/13 09:33:24;;;;;;;4.70;0.40;;;;;;;;;;5089996;28;20288;-61
2021/07/13 09:36:00;;;;;;;1.02;0.30;;;;;;;;;;5087782;28;20093;-61
2021/07/13 09:38:27;;;;;;;3.28;0.40;;;;;;;;;;5088414;28;20361;-61
2021/07/13 09:41:05;;;;;;;5.45;0.40;;;;;;;;;;5101164;28;20391;-60
2021/07/13 09:44:01;;;;;;;2.55;0.45;;;;;;;;;;5091773;28;20085;-61
2021/07/13 09:46:29;;;;;;;0.40;0.40;;;;;;;;;;5079828;28;20062;-61
2021/07/13 09:49:06;;;;;;;2.80;0.30;;;;;;;;;;5082999;28;20060;-61
2021/07/13 09:51:33;;;;;;;4.47;0.30;;;;;;;;;;5085695;28;20044;-61
2021/07/13 09:54:29;;;;;;;1.67;0.45;;;;;;;;;;5087526;28;20532;-61
2021/07/13 09:56:56;;;;;;;1.25;0.50;;;;;;;;;;5089845;28;20119;-61
2021/07/13 09:59:23;;;;;;;6.35;0.40;;;;;;;;;;5087717;28;20040;-61
2021/07/13 10:01:50;;;;;;;2.03;0.40;;;;;;;;;;5077742;28;20044;-61
2021/07/13 10:04:17;;;;;;;2.83;0.50;;;;;;;;;;5089970;28;20115;-61
2021/07/13 10:06:45;;;;;;;1.35;0.30;;;;;;;;;;5087136;28;20043;-61
2021/07/13 10:09:13;;;;;;;2.20;0.32;;;;;;;;;;5090504;28;20119;-61
2021/07/13 10:11:41;;;;;;;6.53;0.50;;;;;;;;;;5088472;28;20114;-61
2021/07/13 10:14:09;;;;;;;3.95;0.47;;;;;;;;;;5086681;28;20388;-61
2021/07/13 10:16:37;;;;;;;2.63;0.50;;;;;;;;;;5090332;28;20067;-60
2021/07/13 10:19:08;;;;;;;1.60;0.47;;;;;;;;;;5085569;28;20109;-60
2021/07/13 10:21:38;;;;;;;5.35;0.40;;;;;;;;;;5090325;28;20040;-60
2021/07/13 10:24:05;;;;;;;5.60;0.40;;;;;;;;;;5088362;28;20040;-61
2021/07/13 10:26:50;;;;;;;1.75;0.40;;;;;;;;;;5087944;28;20079;-61
2021/07/13 10:29:45;;;;;;;1.38;0.40;;;;;;;;;;5074991;28;20561;-60
2021/07/13 10:32:29;;;;;;;4.20;0.40;;;;;;;;;;5083985;28;20060;-61
2021/07/13 10:34:56;;;;;;;6.55;0.50;;;;;;;;;;5090558;28;20044;-61
2021/07/13 10:37:32;;;;;;;7.72;0.60;;;;;;;;;;5093206;28;20088;-61
2021/07/13 10:40:04;;;;;;;4.32;0.47;;;;;;;;;;5092530;28;20097;-61
2021/07/13 10:42:40;;;;;;;5.53;0.50;;;;;;;;;;5091711;28;20115;-61
2021/07/13 10:45:16;;;;;;;3.50;0.50;;;;;;;;;;5092192;28;20036;-61
2021/07/13 10:47:59;;;;;;;1.13;0.50;;;;;;;;;;5090723;28;20036;-60
2021/07/13 10:50:26;;;;;;;3.80;0.50;;;;;;;;;;5075126;28;20074;-60
2021/07/13 10:53:04;;;;;;;3.65;0.50;;;;;;;;;;5101713;28;20119;-61
2021/07/13 10:55:30;;;;;;;9.30;0.60;;;;;;;;;;5099148;28;20430;-61
2021/07/13 10:58:13;;;;;;;3.42;0.65;;;;;;;;;;5075280;28;20442;-61
2021/07/13 11:00:56;;;;;;;6.63;0.52;;;;;;;;;;5094741;28;20078;-60
2021/07/13 11:03:29;;;;;;;6.13;0.55;;;;;;;;;;5091395;28;20085;-60
2021/07/13 11:06:00;;;;;;;11.60;0.90;;;;;;;;;;5087559;28;20085;-60
2021/07/13 11:08:39;;;;;;;7.03;0.88;;;;;;;;;;5085725;28;20111;-60
2021/07/13 11:11:09;;;;;;;8.57;0.82;;;;;;;;;;5090830;28;20052;-60
2021/07/13 11:13:37;;;;;;;10.35;0.70;;;;;;;;;;5085760;28;20527;-60
2021/07/13 11:16:04;;;;;;;6.13;0.85;;;;;;;;;;5083267;28;20523;-60
2021/07/13 11:18:37;;;;;;;7.88;0.70;;;;;;;;;;5081024;28;20391;-60
2021/07/13 11:21:14;;;;;;;12.10;1.00;;;;;;;;;;5095820;28;20051;-60
2021/07/13 11:23:41;;;;;;;10.07;1.25;;;;;;;;;;5091121;28;20039;-59
2021/07/13 11:26:09;;;;;;;18.42;1.25;;;;;;;;;;5077807;28;20657;-60
2021/07/13 11:28:37;;;;;;;10.10;0.95;;;;;;;;;;5092978;28;20032;-60
2021/07/13 11:31:04;;;;;;;14.68;1.10;;;;;;;;;;5100632;28;20044;-60
2021/07/13 11:33:31;;;;;;;18.23;0.98;;;;;;;;;;5092775;28;20076;-60
2021/07/13 11:36:03;;;;;;;22.50;1.42;;;;;;;;;;5087200;28;20044;-60
2021/07/13 11:38:32;;;;;;;5.32;0.80;;;;;;;;;;5088968;28;20082;-60
2021/07/13 11:41:12;;;;;;;9.65;0.80;;;;;;;;;;5091758;28;20123;-60
2021/07/13 11:43:39;;;;;;;5.88;1.05;;;;;;;;;;5088028;28;20601;-56
2021/07/13 11:46:17;;;;;;;17.10;1.02;;;;;;;;;;5086677;28;20125;-57
2021/07/13 11:48:54;;;;;;;13.35;1.92;;;;;;;;;;5086948;28;20082;-57
2021/07/13 11:51:25;;;;;;;16.77;1.23;;;;;;;;;;5087756;28;20067;-56
2021/07/13 11:54:02;;;;;;;11.35;1.23;;;;;;;;;;5091809;28;20036;-56
2021/07/13 11:56:29;;;;;;;20.50;1.38;;;;;;;;;;5086882;28;20515;-56
2021/07/13 11:58:56;;;;;;;18.10;2.05;;;;;;;;;;5087164;28;20101;-56
2021/07/13 12:01:26;;;;;;;22.02;1.35;;;;;;;;;;5085555;28;20082;-56
2021/07/13 12:03:53;;;;;;;9.73;1.30;;;;;;;;;;5088964;28;20051;-56
2021/07/13 12:06:22;;;;;;;17.17;1.85;;;;;;;;;;5086410;28;20161;-56
2021/07/13 12:08:52;;;;;;;13.60;0.90;;;;;;;;;;5091070;28;20032;-56
2021/07/13 12:11:23;;;;;;;11.32;1.10;;;;;;;;;;5089052;28;20068;-56
2021/07/13 12:13:51;;;;;;;11.88;1.00;;;;;;;;;;5086820;28;20044;-56
2021/07/13 12:16:22;;;;;;;15.10;1.40;;;;;;;;;;5089706;28;20051;-56
2021/07/13 12:18:50;;;;;;;13.02;2.10;;;;;;;;;;5089038;28;20036;-57
2021/07/13 12:21:17;;;;;;;20.90;1.08;;;;;;;;;;5090362;28;20445;-56
2021/07/13 12:23:56;;;;;;;21.67;2.15;;;;;;;;;;5072621;28;20044;-56
2021/07/13 12:26:29;;;;;;;12.35;1.65;;;;;;;;;;5084719;28;20094;-55
2021/07/13 12:29:09;;;;;;;14.38;2.00;;;;;;;;;;5080818;28;20044;-56
2021/07/13 12:31:37;;;;;;;16.45;1.42;;;;;;;;;;5081595;28;20098;-56
2021/07/13 12:34:13;;;;;;;7.55;1.52;;;;;;;;;;5088818;28;20035;-55
2021/07/13 12:36:40;;;;;;;2.08;0.60;;;;;;;;;;5085265;28;20574;-56
2021/07/13 12:39:16;;;;;;;4.18;0.70;;;;;;;;;;5091456;28;20056;-56
2021/07/13 12:41:45;;;;;;;3.63;0.60;;;;;;;;;;5090884;28;20044;-57
2021/07/13 12:44:27;;;;;;;9.70;1.30;;;;;;;;;;5075525;28;20032;-57
2021/07/13 12:47:12;;;;;;;7.57;0.80;;;;;;;;;;5091450;28;20464;-60
2021/07/13 12:49:38;;;;;;;7.88;1.20;;;;;;;;;;5087524;28;20369;-58
2021/07/13 12:52:09;;;;;;;13.65;1.70;;;;;;;;;;5089951;28;20471;-61
2021/07/13 12:54:57;;;;;;;4.50;1.80;;;;;;;;;;5087322;28;20047;-67
2021/07/13 12:57:50;;;;;;;7.38;1.10;;;;;;;;;;5086433;28;20043;-64
2021/07/13 13:00:26;;;;;;;3.45;0.90;;;;;;;;;;5073498;28;20138;-63
2021/07/13 13:03:02;;;;;;;8.15;1.73;;;;;;;;;;5083927;28;20045;-62
2021/07/13 13:05:33;;;;;;;4.57;0.90;;;;;;;;;;5091675;28;20090;-61
2021/07/13 13:08:11;;;;;;;1.23;0.80;;;;;;;;;;5090569;28;20379;-61
2021/07/13 13:10:45;;;;;;;4.47;0.95;;;;;;;;;;5091432;28;20094;-61
2021/07/13 13:13:32;;;;;;;1.92;0.70;;;;;;;;;;5089943;28;20028;-61
2021/07/13 13:16:02;;;;;;;2.20;0.90;;;;;;;;;;5090694;28;20035;-61
2021/07/13 13:18:28;;;;;;;4.03;0.80;;;;;;;;;;5094344;28;20034;-61
2021/07/13 13:20:56;;;;;;;2.35;0.82;;;;;;;;;;5088939;28;20059;-61
2021/07/13 13:23:23;;;;;;;2.65;0.70;;;;;;;;;;5079539;28;20507;-60
2021/07/13 13:25:50;;;;;;;3.10;0.80;;;;;;;;;;5083543;28;20048;-61
2021/07/13 13:28:17;;;;;;;5.07;1.00;;;;;;;;;;5090650;28;20040;-61
2021/07/13 13:30:44;;;;;;;1.52;0.80;;;;;;;;;;5084537;28;20036;-61
2021/07/13 13:33:12;;;;;;;4.72;0.80;;;;;;;;;;5085283;28;20079;-61
2021/07/13 13:38:12;;;;;;;3.30;1.00;;;;;;;;;;5088929;28;20109;-60
2021/07/13 13:40:40;;;;;;;7.65;1.23;;;;;;;;;;5095087;28;20125;-60
2021/07/13 13:43:07;;;;;;;7.07;1.55;;;;;;;;;;5091153;28;20044;-60
2021/07/13 13:45:34;;;;;;;3.90;0.85;;;;;;;;;;5090047;28;20483;-61
2021/07/13 13:48:01;;;;;;;2.95;0.82;;;;;;;;;;5091061;28;20119;-61
2021/07/13 13:50:28;;;;;;;4.30;1.55;;;;;;;;;;5087264;28;20426;-61
2021/07/13 13:53:14;;;;;;;3.83;0.90;;;;;;;;;;5077363;28;20032;-61
2021/07/13 13:56:02;;;;;;;1.48;0.80;;;;;;;;;;5090135;28;20047;-61
2021/07/13 13:58:29;;;;;;;4.35;1.13;;;;;;;;;;5090403;28;20089;-61
2021/07/13 14:00:55;;;;;;;4.65;1.00;;;;;;;;;;5089459;28;20036;-60
2021/07/13 14:03:22;;;;;;;2.70;0.77;;;;;;;;;;5082411;28;20392;-60
2021/07/13 14:05:49;;;;;;;6.07;1.00;;;;;;;;;;5088762;28;20043;-60
2021/07/13 14:08:17;;;;;;;5.78;0.70;;;;;;;;;;5075597;28;20071;-60
2021/07/13 14:10:44;;;;;;;5.15;0.80;;;;;;;;;;5091353;28;20032;-61
2021/07/13 14:13:11;;;;;;;2.83;0.73;;;;;;;;;;5094075;28;20067;-61
2021/07/13 14:15:38;;;;;;;2.95;0.70;;;;;;;;;;5084701;28;20044;-60
2021/07/13 14:18:05;;;;;;;1.55;0.70;;;;;;;;;;5086910;28;20584;-60
2021/07/13 14:20:32;;;;;;;4.47;0.80;;;;;;;;;;5081399;28;20463;-61
2021/07/13 14:22:58;;;;;;;1.17;0.80;;;;;;;;;;5090583;28;20120;-61
2021/07/13 14:25:25;;;;;;;5.40;0.70;;;;;;;;;;5091852;28;20373;-60
2021/07/13 14:27:52;;;;;;;1.10;0.77;;;;;;;;;;5095148;28;20040;-60
2021/07/13 14:30:19;;;;;;;3.63;0.90;;;;;;;;;;5096666;28;20052;-61
2021/07/13 14:32:46;;;;;;;8.23;0.90;;;;;;;;;;5082019;28;20051;-60
2021/07/13 14:35:12;;;;;;;4.45;0.82;;;;;;;;;;5092088;28;20040;-61
2021/07/13 14:37:39;;;;;;;5.60;0.82;;;;;;;;;;5075812;28;20036;-67
2021/07/13 14:40:07;;;;;;;1.67;1.25;;;;;;;;;;5098249;28;20043;-61
2021/07/13 14:42:34;;;;;;;2.47;0.80;;;;;;;;;;5098567;28;20047;-60
2021/07/13 14:45:01;;;;;;;1.20;0.70;;;;;;;;;;5075369;28;20040;-60
2021/07/13 14:47:28;;;;;;;3.17;0.82;;;;;;;;;;5100393;28;20043;-61
2021/07/13 14:49:55;;;;;;;4.10;0.73;;;;;;;;;;5094417;28;20043;-60
2021/07/13 14:52:22;;;;;;;2.28;0.70;;;;;;;;;;5094864;28;20044;-60
2021/07/13 14:54:49;;;;;;;7.10;0.80;;;;;;;;;;5090721;28;20040;-60
2021/07/13 14:57:16;;;;;;;5.22;0.90;;;;;;;;;;5076043;28;20571;-60
2021/07/13 14:59:42;;;;;;;3.35;1.00;;;;;;;;;;5084786;28;20043;-61